createdAt,value
2022-08-16T00:01:34.265Z,61.75
2022-08-16T00:04:10.701Z,61.11
2022-08-16T00:06:45.135Z,60.08
2022-08-16T00:09:18.634Z,62.19
2022-08-16T00:11:52.556Z,61.59
2022-08-16T00:17:24.800Z,61.06
2022-08-16T00:19:55.063Z,60.56
2022-08-16T00:22:29.186Z,61.81
2022-08-16T00:25:02.052Z,60.81
2022-08-16T00:27:33.379Z,60.10
2022-08-16T00:30:19.856Z,58.93
2022-08-16T00:33:02.619Z,58.49
2022-08-16T00:35:35.442Z,60.72
2022-08-16T00:38:41.263Z,61.88
2022-08-16T00:41:05.974Z,61.10
2022-08-16T00:43:42.520Z,60.71
2022-08-16T00:46:32.975Z,60.64
2022-08-16T00:49:17.483Z,59.53
2022-08-16T00:51:54.936Z,58.79
2022-08-16T00:54:24.850Z,59.86
2022-08-16T00:57:05.923Z,60.17
2022-08-16T00:59:37.177Z,60.27
2022-08-16T01:02:36.285Z,60.23
2022-08-16T01:05:10.532Z,60.97
2022-08-16T01:07:51.102Z,60.50
2022-08-16T01:10:32.249Z,60.72
2022-08-16T01:18:58.111Z,59.94
2022-08-16T01:21:33.662Z,59.80
2022-08-16T01:24:52.091Z,60.68
2022-08-16T01:27:15.658Z,60.81
2022-08-16T01:29:58.053Z,60.45
2022-08-16T01:32:36.095Z,60.16
2022-08-16T01:35:17.637Z,60.55
2022-08-16T01:38:04.900Z,61.65
2022-08-16T01:40:36.491Z,61.49
2022-08-16T01:43:13.755Z,62.69
2022-08-16T01:45:43.560Z,61.91
2022-08-16T01:48:20.660Z,62.08
2022-08-16T01:51:16.375Z,62.96
2022-08-16T01:53:55.238Z,62.07
2022-08-16T01:56:35.946Z,61.45
2022-08-16T01:59:08.050Z,61.87
2022-08-16T02:01:56.281Z,62.18
2022-08-16T02:04:49.090Z,62.44
2022-08-16T02:07:39.034Z,63.11
2022-08-16T02:10:22.316Z,62.42
2022-08-16T02:13:00.649Z,62.21
2022-08-16T02:18:34.452Z,61.42
2022-08-16T02:21:05.745Z,62.42
2022-08-16T02:23:40.711Z,62.09
2022-08-16T02:26:16.964Z,62.17
2022-08-16T02:28:54.339Z,61.85
2022-08-16T02:31:22.720Z,62.28
2022-08-16T02:34:18.470Z,63.36
2022-08-16T02:36:50.790Z,63.79
2022-08-16T02:39:23.859Z,63.95
2022-08-16T02:41:57.319Z,65.10
2022-08-16T02:44:38.106Z,64.98
2022-08-16T02:47:10.940Z,65.56
2022-08-16T02:50:54.984Z,65.32
2022-08-16T02:52:49.120Z,64.81
2022-08-16T02:55:40.699Z,65.58
2022-08-16T02:58:26.476Z,66.94
2022-08-16T03:01:01.683Z,67.02
2022-08-16T03:04:41.132Z,66.76
2022-08-16T03:06:42.373Z,66.71
2022-08-16T03:09:37.980Z,66.70
2022-08-16T03:12:11.520Z,66.42
2022-08-16T03:17:53.905Z,66.31
2022-08-16T03:20:31.865Z,65.82
2022-08-16T03:23:04.691Z,65.06
2022-08-16T03:25:44.083Z,64.52
2022-08-16T03:28:17.951Z,66.42
2022-08-16T03:30:51.839Z,66.17
2022-08-16T03:33:29.822Z,65.94
2022-08-16T03:36:31.198Z,65.45
2022-08-16T03:39:15.171Z,65.95
2022-08-16T03:41:59.635Z,66.08
2022-08-16T03:44:44.184Z,66.25
2022-08-16T03:47:19.771Z,65.54
2022-08-16T03:49:56.509Z,65.58
2022-08-16T03:52:31.733Z,65.11
2022-08-16T03:55:05.222Z,65.74
2022-08-16T03:57:44.336Z,65.58
2022-08-16T04:00:35.683Z,65.55
2022-08-16T04:03:18.636Z,65.57
2022-08-16T04:05:51.300Z,65.25
2022-08-16T04:08:27.127Z,65.94
2022-08-16T04:11:04.146Z,65.92
2022-08-16T04:14:08.907Z,67.41
2022-08-16T04:16:51.561Z,68.93
2022-08-16T04:19:36.118Z,68.84
2022-08-16T04:22:08.878Z,67.54
2022-08-16T04:24:54.174Z,66.93
2022-08-16T04:27:31.603Z,67.14
2022-08-16T04:30:12.623Z,67.75
2022-08-16T04:33:13.012Z,67.04
2022-08-16T04:35:49.720Z,66.80
2022-08-16T04:38:20.814Z,67.08
2022-08-16T04:40:57.837Z,66.66
2022-08-16T04:43:31.508Z,67.01
2022-08-16T04:46:03.358Z,67.80
2022-08-16T04:48:44.395Z,68.59
2022-08-16T04:51:15.140Z,69.29
2022-08-16T04:53:49.799Z,70.68
2022-08-16T04:56:20.451Z,69.46
2022-08-16T04:58:57.833Z,68.34
2022-08-16T05:01:57.949Z,68.56
2022-08-16T05:04:23.877Z,67.35
2022-08-16T05:07:00.308Z,68.03
2022-08-16T05:09:50.958Z,69.05
2022-08-16T05:12:22.258Z,68.35
2022-08-16T05:18:03.537Z,68.42
2022-08-16T05:20:57.009Z,67.73
2022-08-16T05:23:31.923Z,68.12
2022-08-16T05:26:02.682Z,67.52
2022-08-16T05:28:39.003Z,66.75
2022-08-16T05:31:13.651Z,67.31
2022-08-16T05:33:43.103Z,68.43
2022-08-16T05:36:20.883Z,67.83
2022-08-16T05:38:57.996Z,68.47
2022-08-16T05:41:28.707Z,68.29
2022-08-16T05:44:05.163Z,67.08
2022-08-16T05:46:48.728Z,66.68
2022-08-16T05:49:23.377Z,67.30
2022-08-16T05:52:00.281Z,67.78
2022-08-16T05:54:33.251Z,68.83
2022-08-16T05:57:07.060Z,69.99
2022-08-16T05:59:41.274Z,69.06
2022-08-16T06:02:12.073Z,68.91
2022-08-16T06:04:45.145Z,68.89
2022-08-16T06:07:26.428Z,68.88
2022-08-16T06:10:31.900Z,68.93
2022-08-16T06:16:18.194Z,70.17
2022-08-16T06:18:51.860Z,69.88
2022-08-16T06:21:22.617Z,69.39
2022-08-16T06:24:01.786Z,68.16
2022-08-16T06:26:57.762Z,67.83
2022-08-16T06:29:30.085Z,67.26
2022-08-16T06:31:58.409Z,66.51
2022-08-16T06:34:55.009Z,66.90
2022-08-16T06:37:19.663Z,67.34
2022-08-16T06:39:50.058Z,67.83
2022-08-16T06:42:47.952Z,65.86
2022-08-16T06:45:43.731Z,65.17
2022-08-16T06:48:32.646Z,64.19
2022-08-16T06:51:03.635Z,64.04
2022-08-16T06:53:35.379Z,64.31
2022-08-16T06:56:14.676Z,63.38
2022-08-16T06:59:08.971Z,62.22
2022-08-16T07:01:53.580Z,63.14
2022-08-16T07:04:31.814Z,63.18
2022-08-16T07:07:09.886Z,63.69
2022-08-16T07:09:42.526Z,61.80
2022-08-16T07:12:15.440Z,61.39
2022-08-16T07:14:50.867Z,61.54
2022-08-16T07:17:21.765Z,60.92
2022-08-16T07:20:29.200Z,61.40
2022-08-16T07:22:59.048Z,61.90
2022-08-16T07:25:40.590Z,62.09
2022-08-16T07:28:20.481Z,61.68
2022-08-16T07:30:50.180Z,60.66
2022-08-16T07:33:53.365Z,62.40
2022-08-16T07:36:31.142Z,61.39
2022-08-16T07:39:02.684Z,61.22
2022-08-16T07:41:36.418Z,61.51
2022-08-16T07:44:16.215Z,63.26
2022-08-16T07:46:45.464Z,62.55
2022-08-16T07:49:19.626Z,61.21
2022-08-16T07:51:47.839Z,60.99
2022-08-16T07:54:21.215Z,62.67
2022-08-16T07:57:00.125Z,61.88
2022-08-16T07:59:42.970Z,61.87
2022-08-16T08:02:20.428Z,61.45
2022-08-16T08:04:57.735Z,63.41
2022-08-16T08:07:29.542Z,63.74
2022-08-16T08:10:04.655Z,61.76
2022-08-16T08:12:36.633Z,61.41
2022-08-16T08:18:30.068Z,60.82
2022-08-16T08:20:59.283Z,59.06
2022-08-16T08:23:29.689Z,59.10
2022-08-16T08:25:58.681Z,58.14
2022-08-16T08:28:29.473Z,57.60
2022-08-16T08:31:03.225Z,57.80
2022-08-16T08:33:47.127Z,59.45
2022-08-16T08:36:33.033Z,60.95
2022-08-16T08:39:13.011Z,56.55
2022-08-16T08:41:42.940Z,56.48
2022-08-16T08:44:29.228Z,56.11
2022-08-16T08:47:03.294Z,55.97
2022-08-16T08:49:46.293Z,57.27
2022-08-16T08:52:34.459Z,60.11
2022-08-16T08:55:11.470Z,58.93
2022-08-16T08:57:43.568Z,57.64
2022-08-16T09:00:51.328Z,57.46
2022-08-16T09:03:24.458Z,56.94
2022-08-16T09:06:01.278Z,55.78
2022-08-16T09:08:32.425Z,56.47
2022-08-16T09:11:10.237Z,55.19
2022-08-16T09:13:54.148Z,55.01
2022-08-16T09:17:01.065Z,56.61
2022-08-16T09:19:10.128Z,54.90
2022-08-16T09:21:37.992Z,56.44
2022-08-16T09:24:10.036Z,54.79
2022-08-16T09:26:45.698Z,55.09
2022-08-16T09:29:24.095Z,54.28
2022-08-16T09:32:07.925Z,53.04
2022-08-16T09:34:39.044Z,51.75
2022-08-16T09:37:17.944Z,52.45
2022-08-16T09:39:50.534Z,52.30
2022-08-16T09:42:24.168Z,54.31
2022-08-16T09:45:10.685Z,55.13
2022-08-16T09:47:56.412Z,54.07
2022-08-16T09:50:36.861Z,53.44
2022-08-16T09:53:15.518Z,51.38
2022-08-16T09:55:49.599Z,54.13
2022-08-16T09:58:41.654Z,52.14
2022-08-16T10:01:11.269Z,54.51
2022-08-16T10:04:01.159Z,53.56
2022-08-16T10:06:33.480Z,52.27
2022-08-16T10:09:08.238Z,53.19
2022-08-16T10:12:11.301Z,49.56
2022-08-16T10:18:01.052Z,50.51
2022-08-16T10:20:35.045Z,49.65
2022-08-16T10:23:08.003Z,52.12
2022-08-16T10:27:16.381Z,51.46
2022-08-16T10:28:31.868Z,49.26
2022-08-16T10:31:03.520Z,53.41
2022-08-16T10:33:34.200Z,51.41
2022-08-16T10:36:04.415Z,50.37
2022-08-16T10:38:36.600Z,49.95
2022-08-16T10:41:08.283Z,46.13
2022-08-16T10:43:38.321Z,48.05
2022-08-16T10:46:39.860Z,44.99
2022-08-16T10:49:01.103Z,47.68
2022-08-16T10:51:34.218Z,50.43
2022-08-16T10:54:28.299Z,46.95
2022-08-16T10:56:59.993Z,45.81
2022-08-16T10:59:38.326Z,45.66
2022-08-16T11:02:58.197Z,45.38
2022-08-16T11:05:13.904Z,45.20
2022-08-16T11:07:52.483Z,47.75
2022-08-16T11:11:05.516Z,48.13
2022-08-16T11:22:50.956Z,42.77
2022-08-16T11:28:08.509Z,40.21
2022-08-16T11:35:43.431Z,35.06
2022-08-16T11:42:37.958Z,34.84
2022-08-16T11:45:08.424Z,35.56
2022-08-16T11:47:39.603Z,35.30
2022-08-16T11:54:41.944Z,35.22
2022-08-16T11:57:15.371Z,34.29
2022-08-16T11:59:43.340Z,30.80
2022-08-16T12:10:16.308Z,35.54
2022-08-16T12:12:44.326Z,35.25
2022-08-16T15:17:41.049Z,41.71
2022-08-16T15:20:13.636Z,40.37
2022-08-16T15:22:48.953Z,40.79
2022-08-16T15:25:22.785Z,39.43
2022-08-16T15:28:31.735Z,40.02
2022-08-16T15:31:06.781Z,40.16
2022-08-16T15:33:42.634Z,42.34
2022-08-16T15:36:17.717Z,40.26
2022-08-16T15:38:56.760Z,40.58
2022-08-16T15:41:34.399Z,40.64
2022-08-16T15:44:10.373Z,42.67
2022-08-16T15:46:55.337Z,40.09
2022-08-16T15:49:55.613Z,40.62
2022-08-16T15:52:30.473Z,40.17
2022-08-16T15:55:24.119Z,39.36
2022-08-16T15:58:34.914Z,41.33
2022-08-16T16:00:55.433Z,39.77
2022-08-16T16:03:29.250Z,40.67
2022-08-16T16:06:05.391Z,41.78
2022-08-16T16:08:59.548Z,41.10
2022-08-16T16:11:31.096Z,40.67
2022-08-16T16:27:09.195Z,40.57
2022-08-16T16:29:40.569Z,41.83
2022-08-16T16:32:10.146Z,41.39
2022-08-16T16:34:38.846Z,40.84
2022-08-16T16:37:10.387Z,39.78
2022-08-16T16:39:42.423Z,39.29
2022-08-16T16:42:29.720Z,43.50
2022-08-16T16:45:03.770Z,41.49
2022-08-16T16:47:48.314Z,40.97
2022-08-16T16:50:16.854Z,41.77
2022-08-16T16:52:48.368Z,42.94
2022-08-16T16:55:19.224Z,40.00
2022-08-16T16:58:06.442Z,40.04
2022-08-16T17:00:51.755Z,42.04
2022-08-16T17:03:27.027Z,42.08
2022-08-16T17:06:03.185Z,42.47
2022-08-16T17:08:42.136Z,42.94
2022-08-16T17:11:12.470Z,44.33
2022-08-16T17:13:44.008Z,41.71
2022-08-16T17:19:22.074Z,40.97
2022-08-16T17:21:51.907Z,42.75
2022-08-16T17:24:31.271Z,41.42
2022-08-16T17:27:08.981Z,41.36
2022-08-16T17:29:45.846Z,43.14
2022-08-16T17:32:47.912Z,42.22
2022-08-16T17:35:33.619Z,41.62
2022-08-16T17:38:06.119Z,43.59
2022-08-16T17:41:24.158Z,43.29
2022-08-16T17:47:52.245Z,41.71
2022-08-16T17:50:22.397Z,42.42
2022-08-16T17:52:53.435Z,44.04
2022-08-16T17:58:44.709Z,45.77
2022-08-16T18:01:12.782Z,43.33
2022-08-16T18:04:07.603Z,43.57
2022-08-16T18:15:42.829Z,46.72
2022-08-16T18:18:11.136Z,46.87
2022-08-16T18:29:07.617Z,47.32
2022-08-16T18:31:36.242Z,46.19
2022-08-16T18:34:09.152Z,46.15
2022-08-16T20:38:13.775Z,54.69
2022-08-16T20:40:43.689Z,54.85
2022-08-16T20:43:15.027Z,55.54
2022-08-16T20:45:46.784Z,55.35
2022-08-16T20:48:19.679Z,55.98
2022-08-16T20:50:50.741Z,55.67
2022-08-16T20:53:44.567Z,55.81
2022-08-16T20:56:12.337Z,55.74
2022-08-16T20:58:40.015Z,56.12
2022-08-16T21:01:12.479Z,56.35
2022-08-16T21:03:45.930Z,57.34
2022-08-16T21:06:13.715Z,57.42
2022-08-16T21:08:52.509Z,57.31
2022-08-16T21:11:21.828Z,56.85
2022-08-16T21:14:00.084Z,57.12
2022-08-16T21:38:11.361Z,56.44
2022-08-16T21:41:08.563Z,56.01
2022-08-16T21:43:36.793Z,56.74
2022-08-16T21:46:07.726Z,55.38
2022-08-16T21:48:40.543Z,55.55
2022-08-16T21:51:12.844Z,54.83
2022-08-16T21:53:43.428Z,54.69
2022-08-16T21:56:16.574Z,54.49
2022-08-16T21:58:52.670Z,54.12
2022-08-16T22:02:06.889Z,55.45
2022-08-16T22:05:01.999Z,55.11
2022-08-16T22:07:35.401Z,56.15
2022-08-16T22:11:04.148Z,55.97
2022-08-16T22:12:59.874Z,56.50
2022-08-16T22:15:35.802Z,55.86
2022-08-16T22:18:03.771Z,56.13
2022-08-16T22:20:34.498Z,56.90
2022-08-16T22:23:06.292Z,56.56
2022-08-16T22:25:36.944Z,56.78
2022-08-16T22:28:07.882Z,55.50
2022-08-16T22:30:38.193Z,55.78
2022-08-16T22:33:16.908Z,54.68
2022-08-16T22:35:49.824Z,55.76
2022-08-16T22:38:54.679Z,55.96
2022-08-16T22:41:13.006Z,55.18
2022-08-16T22:43:47.774Z,54.85
2022-08-16T22:46:19.724Z,54.15
2022-08-16T22:48:53.142Z,54.88
2022-08-16T22:51:24.628Z,54.40
2022-08-16T22:53:55.260Z,54.67
2022-08-16T22:56:25.983Z,54.66
2022-08-16T22:58:56.269Z,54.72
2022-08-16T23:01:25.431Z,55.49
2022-08-16T23:04:01.044Z,54.08
2022-08-16T23:06:28.826Z,54.91
2022-08-16T23:08:57.952Z,55.38
2022-08-16T23:11:25.851Z,54.94
2022-08-16T23:13:54.726Z,53.73
2022-08-16T23:16:24.887Z,54.91
2022-08-16T23:18:58.819Z,54.41
2022-08-16T23:21:31.995Z,54.37
2022-08-16T23:24:02.282Z,54.67
2022-08-16T23:26:44.720Z,53.82
2022-08-16T23:29:24.579Z,55.37
2022-08-16T23:31:59.791Z,55.10
2022-08-16T23:34:28.401Z,55.90
2022-08-16T23:36:56.720Z,55.01
2022-08-16T23:39:26.727Z,55.04
2022-08-16T23:42:02.250Z,56.20
2022-08-16T23:44:45.547Z,56.57
2022-08-16T23:47:30.215Z,56.77
2022-08-16T23:50:04.247Z,57.33
2022-08-16T23:52:42.337Z,57.55
2022-08-16T23:55:22.900Z,57.64
2022-08-16T23:57:53.762Z,56.86
